createdAt,value
2023-03-01T00:01:25.093Z,1.42
2023-03-01T00:03:52.332Z,1.60
2023-03-01T00:06:19.502Z,1.60
2023-03-01T00:08:46.439Z,1.60
2023-03-01T00:11:16.265Z,2.13
2023-03-01T00:13:43.889Z,1.33
2023-03-01T00:16:16.351Z,1.70
2023-03-01T00:18:43.049Z,1.85
2023-03-01T00:21:09.614Z,1.90
2023-03-01T00:23:37.305Z,1.80
2023-03-01T00:26:07.608Z,1.60
2023-03-01T00:28:34.431Z,1.27
2023-03-01T00:31:06.013Z,1.65
2023-03-01T00:33:32.636Z,1.80
2023-03-01T00:36:00.248Z,1.70
2023-03-01T00:38:27.236Z,2.03
2023-03-01T00:40:53.797Z,1.80
2023-03-01T00:43:20.579Z,2.10
2023-03-01T00:45:47.169Z,1.88
2023-03-01T00:48:13.795Z,1.75
2023-03-01T00:50:40.319Z,1.90
2023-03-01T00:53:06.923Z,1.98
2023-03-01T00:55:33.494Z,1.77
2023-03-01T00:58:00.087Z,1.77
2023-03-01T01:00:28.792Z,2.17
2023-03-01T01:02:55.403Z,1.95
2023-03-01T01:05:21.986Z,2.08
2023-03-01T01:07:49.404Z,2.03
2023-03-01T01:10:17.968Z,1.73
2023-03-01T01:12:46.552Z,1.70
2023-03-01T01:15:15.187Z,1.85
2023-03-01T01:17:41.851Z,1.80
2023-03-01T01:20:09.398Z,2.30
2023-03-01T01:22:35.945Z,1.92
2023-03-01T01:25:02.505Z,1.55
2023-03-01T01:27:30.546Z,2.10
2023-03-01T01:29:57.067Z,1.90
2023-03-01T01:32:26.064Z,2.20
2023-03-01T01:34:53.700Z,1.98
2023-03-01T01:37:20.312Z,2.20
2023-03-01T01:39:46.859Z,2.15
2023-03-01T01:42:18.205Z,2.35
2023-03-01T01:44:48.392Z,2.08
2023-03-01T01:47:21.497Z,2.20
2023-03-01T01:49:55.983Z,2.20
2023-03-01T01:52:40.736Z,2.20
2023-03-01T01:55:12.466Z,1.98
2023-03-01T01:57:46.144Z,1.83
2023-03-01T02:00:18.259Z,2.40
2023-03-01T02:02:47.683Z,1.90
2023-03-01T02:05:14.298Z,1.92
2023-03-01T02:07:42.415Z,2.22
2023-03-01T02:10:09.497Z,2.13
2023-03-01T02:12:37.601Z,2.60
2023-03-01T02:15:06.628Z,2.03
2023-03-01T02:17:34.620Z,2.45
2023-03-01T02:20:35.241Z,2.25
2023-03-01T02:23:02.212Z,2.00
2023-03-01T02:25:33.789Z,2.00
2023-03-01T02:28:06.272Z,2.25
2023-03-01T02:30:34.052Z,2.00
2023-03-01T02:37:10.367Z,2.20
2023-03-01T02:42:03.775Z,1.83
2023-03-01T02:44:18.138Z,2.15
2023-03-01T02:48:09.061Z,2.05
2023-03-01T02:57:51.968Z,2.63
2023-03-01T03:00:26.186Z,2.75
2023-03-01T03:02:54.796Z,2.55
2023-03-01T03:05:25.664Z,2.35
2023-03-01T03:07:52.580Z,2.50
2023-03-01T03:10:31.375Z,2.08
2023-03-01T03:13:00.610Z,2.30
2023-03-01T03:15:28.206Z,2.03
2023-03-01T03:17:55.440Z,2.50
2023-03-01T03:20:26.770Z,2.03
2023-03-01T03:22:55.526Z,2.42
2023-03-01T03:25:23.380Z,2.58
2023-03-01T03:27:57.601Z,2.22
2023-03-01T03:30:30.756Z,1.92
2023-03-01T03:32:58.818Z,2.47
2023-03-01T03:35:31.534Z,2.28
2023-03-01T03:38:03.129Z,2.08
2023-03-01T03:40:40.872Z,2.30
2023-03-01T03:43:10.187Z,2.40
2023-03-01T03:45:37.240Z,2.67
2023-03-01T03:48:07.223Z,2.63
2023-03-01T03:50:34.025Z,3.10
2023-03-01T03:53:06.271Z,2.50
2023-03-01T03:55:34.891Z,2.58
2023-03-01T03:58:07.915Z,2.35
2023-03-01T04:00:43.252Z,2.55
2023-03-01T04:03:11.295Z,2.50
2023-03-01T04:05:38.933Z,2.80
2023-03-01T04:08:09.348Z,2.13
2023-03-01T04:10:39.373Z,2.80
2023-03-01T04:13:07.866Z,2.83
2023-03-01T04:15:35.132Z,2.67
2023-03-01T04:18:02.031Z,2.80
2023-03-01T04:20:31.645Z,2.70
2023-03-01T04:23:11.447Z,2.80
2023-03-01T04:25:43.551Z,2.30
2023-03-01T04:28:10.892Z,3.03
2023-03-01T04:30:38.582Z,2.60
2023-03-01T04:33:07.325Z,2.92
2023-03-01T04:35:35.703Z,2.60
2023-03-01T04:38:02.397Z,3.13
2023-03-01T04:40:28.981Z,2.83
2023-03-01T04:42:55.581Z,2.92
2023-03-01T04:45:22.181Z,2.45
2023-03-01T04:47:49.061Z,2.33
2023-03-01T04:50:18.088Z,2.90
2023-03-01T04:52:45.257Z,2.42
2023-03-01T04:55:12.413Z,2.80
2023-03-01T04:57:39.472Z,2.65
2023-03-01T05:00:21.002Z,2.42
2023-03-01T05:02:56.973Z,2.75
2023-03-01T05:07:58.006Z,2.15
2023-03-01T05:10:26.614Z,2.47
2023-03-01T05:12:54.004Z,2.58
2023-03-01T05:15:22.651Z,2.33
2023-03-01T05:17:50.416Z,2.13
2023-03-01T05:20:17.239Z,2.63
2023-03-01T05:22:43.915Z,2.58
2023-03-01T05:25:10.524Z,2.90
2023-03-01T05:27:37.435Z,2.58
2023-03-01T05:30:14.366Z,2.50
2023-03-01T05:32:49.182Z,2.60
2023-03-01T05:35:17.875Z,2.70
2023-03-01T05:37:46.830Z,2.72
2023-03-01T05:40:19.106Z,2.53
2023-03-01T05:42:50.331Z,2.50
2023-03-01T05:45:18.293Z,2.50
2023-03-01T05:47:46.293Z,2.75
2023-03-01T05:50:22.333Z,2.72
2023-03-01T05:52:51.337Z,2.83
2023-03-01T05:55:19.661Z,2.53
2023-03-01T05:57:47.018Z,2.60
2023-03-01T06:00:15.624Z,2.67
2023-03-01T06:02:42.219Z,2.75
2023-03-01T06:05:10.987Z,2.38
2023-03-01T06:07:37.675Z,2.60
2023-03-01T06:10:06.655Z,2.63
2023-03-01T06:12:34.725Z,2.38
2023-03-01T06:15:01.841Z,2.53
2023-03-01T06:17:31.419Z,2.58
2023-03-01T06:19:58.087Z,2.75
2023-03-01T06:22:25.009Z,2.25
2023-03-01T06:24:51.560Z,2.10
2023-03-01T06:27:18.133Z,2.70
2023-03-01T06:29:44.672Z,2.28
2023-03-01T06:32:11.232Z,2.22
2023-03-01T06:34:37.786Z,2.20
2023-03-01T06:37:06.192Z,2.28
2023-03-01T06:39:33.802Z,2.30
2023-03-01T06:42:00.791Z,2.20
2023-03-01T06:44:28.016Z,2.00
2023-03-01T06:46:55.100Z,2.35
2023-03-01T06:49:22.196Z,2.40
2023-03-01T06:51:48.782Z,2.17
2023-03-01T06:54:15.435Z,2.83
2023-03-01T06:56:41.987Z,2.50
2023-03-01T06:59:08.554Z,2.08
2023-03-01T07:01:35.216Z,2.45
2023-03-01T07:04:01.758Z,2.60
2023-03-01T07:06:28.510Z,1.88
2023-03-01T07:08:55.251Z,2.53
2023-03-01T07:11:21.791Z,2.30
2023-03-01T07:13:48.370Z,2.15
2023-03-01T07:16:15.765Z,2.30
2023-03-01T07:18:42.757Z,2.10
2023-03-01T07:21:12.199Z,2.30
2023-03-01T07:23:38.795Z,2.22
2023-03-01T07:26:05.858Z,2.85
2023-03-01T07:28:36.837Z,3.00
2023-03-01T07:31:04.295Z,2.65
2023-03-01T07:33:31.149Z,2.67
2023-03-01T07:36:02.403Z,2.67
2023-03-01T07:38:29.964Z,2.10
2023-03-01T07:41:01.646Z,2.40
2023-03-01T07:43:29.543Z,3.05
2023-03-01T07:45:58.795Z,1.80
2023-03-01T07:48:25.381Z,2.22
2023-03-01T07:50:51.913Z,2.40
2023-03-01T07:53:18.431Z,2.08
2023-03-01T07:55:45.012Z,2.13
2023-03-01T07:58:11.573Z,2.30
2023-03-01T08:00:38.150Z,1.98
2023-03-01T08:03:04.706Z,1.98
2023-03-01T08:05:31.300Z,2.03
2023-03-01T08:07:58.038Z,2.20
2023-03-01T08:10:24.644Z,2.13
2023-03-01T08:12:52.989Z,1.90
2023-03-01T08:15:19.982Z,1.92
2023-03-01T08:17:46.626Z,2.33
2023-03-01T08:20:13.718Z,2.10
2023-03-01T08:22:40.401Z,2.00
2023-03-01T08:25:07.270Z,2.17
2023-03-01T08:27:33.792Z,1.88
2023-03-01T08:30:00.392Z,1.98
2023-03-01T08:32:26.991Z,1.90
2023-03-01T08:34:53.773Z,1.98
2023-03-01T08:37:20.345Z,2.15
2023-03-01T08:39:47.785Z,1.90
2023-03-01T08:42:14.365Z,1.98
2023-03-01T08:44:40.908Z,1.90
2023-03-01T08:47:07.708Z,1.88
2023-03-01T08:49:34.270Z,1.70
2023-03-01T08:52:00.863Z,2.35
2023-03-01T08:54:27.388Z,1.90
2023-03-01T08:56:53.988Z,1.90
2023-03-01T08:59:20.747Z,1.92
2023-03-01T09:01:47.353Z,2.05
2023-03-01T09:04:15.439Z,2.00
2023-03-01T09:06:42.001Z,2.42
2023-03-01T09:09:16.081Z,2.03
2023-03-01T09:11:43.975Z,2.28
2023-03-01T09:14:10.645Z,2.05
2023-03-01T09:16:37.370Z,2.00
2023-03-01T09:19:04.905Z,2.20
2023-03-01T09:21:40.049Z,2.33
2023-03-01T09:24:14.576Z,2.10
2023-03-01T09:26:41.160Z,2.97
2023-03-01T09:29:07.793Z,2.20
2023-03-01T09:31:34.325Z,2.17
2023-03-01T09:34:00.878Z,1.98
2023-03-01T09:36:27.488Z,1.88
2023-03-01T09:38:54.348Z,2.00
2023-03-01T09:41:26.787Z,2.38
2023-03-01T09:44:30.502Z,1.98
2023-03-01T09:46:58.218Z,1.92
2023-03-01T09:49:33.238Z,1.95
2023-03-01T09:52:01.831Z,1.63
2023-03-01T09:54:28.461Z,1.48
2023-03-01T09:57:05.321Z,1.50
2023-03-01T09:59:40.699Z,1.35
2023-03-01T10:02:36.500Z,1.67
2023-03-01T10:05:18.809Z,1.23
2023-03-01T10:08:04.274Z,0.90
2023-03-01T10:10:39.556Z,1.07
2023-03-01T10:13:44.800Z,1.08
2023-03-01T10:16:39.799Z,1.27
2023-03-01T10:19:10.805Z,1.10
2023-03-01T10:21:44.042Z,1.20
2023-03-01T10:24:17.373Z,1.15
2023-03-01T10:26:50.102Z,1.05
2023-03-01T10:29:17.030Z,1.40
2023-03-01T10:31:49.588Z,1.10
2023-03-01T10:34:21.654Z,1.00
2023-03-01T10:36:51.230Z,0.80
2023-03-01T10:39:22.906Z,1.30
2023-03-01T10:41:58.416Z,1.15
2023-03-01T10:44:45.588Z,1.33
2023-03-01T10:47:22.107Z,1.00
2023-03-01T10:50:03.466Z,1.30
2023-03-01T10:52:36.661Z,0.90
2023-03-01T10:55:25.242Z,0.77
2023-03-01T10:58:15.865Z,0.80
2023-03-01T11:00:54.221Z,0.88
2023-03-01T11:03:27.690Z,1.30
2023-03-01T11:06:09.708Z,0.80
2023-03-01T11:08:38.301Z,0.90
2023-03-01T11:11:30.666Z,0.70
2023-03-01T11:14:00.975Z,0.90
2023-03-01T11:16:29.455Z,0.70
2023-03-01T11:19:01.118Z,0.93
2023-03-01T11:21:32.628Z,0.90
2023-03-01T11:24:01.601Z,0.70
2023-03-01T11:26:32.396Z,0.98
2023-03-01T11:29:05.225Z,0.80
2023-03-01T11:31:33.462Z,0.85
2023-03-01T11:34:00.229Z,1.00
2023-03-01T11:36:38.902Z,0.73
2023-03-01T11:40:10.291Z,1.00
2023-03-01T11:42:45.816Z,0.77
2023-03-01T11:45:13.779Z,0.98
2023-03-01T11:48:01.927Z,0.73
2023-03-01T11:50:50.531Z,0.85
2023-03-01T11:54:07.524Z,0.70
2023-03-01T11:56:42.685Z,0.95
2023-03-01T11:59:22.473Z,1.05
2023-03-01T12:01:58.228Z,0.73
2023-03-01T12:07:33.241Z,0.80
2023-03-01T12:10:14.925Z,0.82
2023-03-01T12:12:54.683Z,0.82
2023-03-01T12:15:55.440Z,0.90
2023-03-01T12:18:40.233Z,0.85
2023-03-01T12:21:35.004Z,0.82
2023-03-01T12:24:04.439Z,0.57
2023-03-01T12:26:53.200Z,0.70
2023-03-01T12:29:30.123Z,0.75
2023-03-01T12:31:59.359Z,0.75
2023-03-01T12:34:42.126Z,0.70
2023-03-01T12:37:24.361Z,0.70
2023-03-01T12:39:57.004Z,0.80
2023-03-01T12:42:32.582Z,0.82
2023-03-01T12:45:26.762Z,0.70
2023-03-01T12:48:14.534Z,0.90
2023-03-01T12:50:51.534Z,0.70
2023-03-01T12:53:21.330Z,0.88
2023-03-01T12:55:49.678Z,0.70
2023-03-01T12:58:29.895Z,0.70
2023-03-01T13:01:20.814Z,0.60
2023-03-01T13:04:16.549Z,0.63
2023-03-01T13:06:51.560Z,0.90
2023-03-01T13:09:25.108Z,0.80
2023-03-01T13:11:51.695Z,0.77
2023-03-01T13:14:21.252Z,0.60
2023-03-01T13:16:50.398Z,0.60
2023-03-01T13:19:30.205Z,0.60
2023-03-01T13:21:56.953Z,0.60
2023-03-01T13:24:39.814Z,0.60
2023-03-01T13:27:10.673Z,0.57
2023-03-01T13:29:53.707Z,0.40
2023-03-01T13:32:34.699Z,0.70
2023-03-01T13:35:15.557Z,0.70
2023-03-01T13:37:42.705Z,0.60
2023-03-01T13:40:29.476Z,0.63
2023-03-01T13:43:05.661Z,0.65
2023-03-01T13:45:44.137Z,0.47
2023-03-01T13:48:19.773Z,0.50
2023-03-01T13:50:51.830Z,0.80
2023-03-01T13:53:21.197Z,0.50
2023-03-01T13:55:51.952Z,0.57
2023-03-01T13:58:33.151Z,0.60
2023-03-01T14:01:01.544Z,0.63
2023-03-01T14:03:30.852Z,0.40
2023-03-01T14:06:12.824Z,0.70
2023-03-01T14:08:43.528Z,0.65
2023-03-01T14:11:26.295Z,0.70
2023-03-01T14:14:31.619Z,0.60
2023-03-01T14:17:16.609Z,0.45
2023-03-01T14:19:46.306Z,0.50
2023-03-01T14:22:24.929Z,1.23
2023-03-01T14:25:04.207Z,0.70
2023-03-01T14:27:40.370Z,0.50
2023-03-01T14:30:22.945Z,0.68
2023-03-01T14:32:56.640Z,0.57
2023-03-01T14:35:35.600Z,0.80
2023-03-01T14:38:03.189Z,0.60
2023-03-01T14:40:38.848Z,0.70
2023-03-01T14:43:19.908Z,0.70
2023-03-01T14:45:51.463Z,0.70
2023-03-01T14:48:19.104Z,0.50
2023-03-01T14:50:46.404Z,0.80
2023-03-01T14:53:25.815Z,0.50
2023-03-01T14:56:01.340Z,0.50
2023-03-01T14:58:28.117Z,0.60
2023-03-01T15:01:00.772Z,0.80
2023-03-01T15:03:40.995Z,0.70
2023-03-01T15:06:09.313Z,0.60
2023-03-01T15:08:38.067Z,0.63
2023-03-01T15:11:05.873Z,0.75
2023-03-01T15:13:36.104Z,0.65
2023-03-01T15:16:14.762Z,0.50
2023-03-01T15:18:47.795Z,0.55
2023-03-01T15:21:28.066Z,0.60
2023-03-01T15:24:07.478Z,0.52
2023-03-01T15:26:40.584Z,0.70
2023-03-01T15:29:17.797Z,1.02
2023-03-01T15:31:54.435Z,0.90
2023-03-01T15:34:24.381Z,0.75
2023-03-01T15:36:52.792Z,0.60
2023-03-01T15:39:25.191Z,0.82
2023-03-01T15:41:51.765Z,0.60
2023-03-01T15:44:29.973Z,0.77
2023-03-01T15:47:02.576Z,0.70
2023-03-01T15:49:31.896Z,0.73
2023-03-01T15:51:59.161Z,0.90
2023-03-01T15:54:27.682Z,0.60
2023-03-01T15:56:54.512Z,0.90
2023-03-01T15:59:22.673Z,0.60
2023-03-01T16:01:49.736Z,0.60
2023-03-01T16:04:21.865Z,0.90
2023-03-01T16:06:55.213Z,0.68
2023-03-01T16:09:24.572Z,0.65
2023-03-01T16:11:52.761Z,0.75
2023-03-01T16:14:19.491Z,0.60
2023-03-01T16:16:47.043Z,0.70
2023-03-01T16:19:13.720Z,1.00
2023-03-01T16:21:40.310Z,0.70
2023-03-01T16:24:07.357Z,1.02
2023-03-01T16:26:34.043Z,0.60
2023-03-01T16:29:00.616Z,0.82
2023-03-01T16:31:28.132Z,0.80
2023-03-01T16:33:56.982Z,0.98
2023-03-01T16:36:24.826Z,0.90
2023-03-01T16:38:52.851Z,0.70
2023-03-01T16:41:22.720Z,0.90
2023-03-01T16:43:50.691Z,0.80
2023-03-01T16:46:20.400Z,0.60
2023-03-01T16:48:47.902Z,0.98
2023-03-01T16:51:14.575Z,0.88
2023-03-01T16:53:41.963Z,0.70
2023-03-01T16:56:11.366Z,0.80
2023-03-01T16:58:39.224Z,0.68
2023-03-01T17:01:12.633Z,0.80
2023-03-01T17:03:40.326Z,0.70
2023-03-01T17:06:09.386Z,0.63
2023-03-01T17:08:37.035Z,0.70
2023-03-01T17:11:09.750Z,1.08
2023-03-01T17:13:38.239Z,0.80
2023-03-01T17:16:10.832Z,1.00
2023-03-01T17:18:38.795Z,0.90
2023-03-01T17:21:06.824Z,0.77
2023-03-01T17:23:34.331Z,0.77
2023-03-01T17:26:00.924Z,0.95
2023-03-01T17:28:30.007Z,1.00
2023-03-01T17:30:56.650Z,0.77
2023-03-01T17:33:23.327Z,0.60
2023-03-01T17:35:50.696Z,0.85
2023-03-01T17:38:17.728Z,0.80
2023-03-01T17:40:47.976Z,0.68
2023-03-01T17:43:15.998Z,0.80
2023-03-01T17:45:47.555Z,0.60
2023-03-01T17:48:15.764Z,0.82
2023-03-01T17:50:42.393Z,0.60
2023-03-01T17:53:10.167Z,0.80
2023-03-01T17:55:37.944Z,0.70
2023-03-01T17:58:06.244Z,0.88
2023-03-01T18:00:33.371Z,0.70
2023-03-01T18:03:00.119Z,0.60
2023-03-01T18:05:27.081Z,1.10
2023-03-01T18:07:54.055Z,0.68
2023-03-01T18:10:21.023Z,0.98
2023-03-01T18:12:47.613Z,0.80
2023-03-01T18:15:14.199Z,1.02
2023-03-01T18:17:40.768Z,0.77
2023-03-01T18:20:08.018Z,0.90
2023-03-01T18:22:34.604Z,0.80
2023-03-01T18:25:01.181Z,0.70
2023-03-01T18:27:27.699Z,0.70
2023-03-01T18:29:54.872Z,0.60
2023-03-01T18:32:22.080Z,1.02
2023-03-01T18:34:48.625Z,0.93
2023-03-01T18:37:15.953Z,0.75
2023-03-01T18:39:42.544Z,0.70
2023-03-01T18:42:09.309Z,0.80
2023-03-01T18:44:36.746Z,0.90
2023-03-01T18:47:03.274Z,0.80
2023-03-01T18:49:29.894Z,0.70
2023-03-01T18:51:56.666Z,0.80
2023-03-01T18:54:23.390Z,0.90
2023-03-01T18:56:50.059Z,0.90
2023-03-01T18:59:16.654Z,1.00
2023-03-01T19:01:43.437Z,0.82
2023-03-01T19:04:11.315Z,0.70
2023-03-01T19:06:38.686Z,0.73
2023-03-01T19:09:07.112Z,0.57
2023-03-01T19:11:35.556Z,0.80
2023-03-01T19:14:03.210Z,0.75
2023-03-01T19:16:32.371Z,1.00
2023-03-01T19:19:04.795Z,1.00
2023-03-01T19:21:32.883Z,1.00
2023-03-01T19:24:00.237Z,0.93
2023-03-01T19:26:28.054Z,0.80
2023-03-01T19:28:56.084Z,1.08
2023-03-01T19:31:26.004Z,1.13
2023-03-01T19:33:59.585Z,0.80
2023-03-01T19:36:35.154Z,0.90
2023-03-01T19:39:06.753Z,1.25
2023-03-01T19:41:33.645Z,1.05
2023-03-01T19:44:04.463Z,1.10
2023-03-01T19:46:31.523Z,0.93
2023-03-01T19:49:00.449Z,1.00
2023-03-01T19:51:27.769Z,0.98
2023-03-01T19:53:54.955Z,0.80
2023-03-01T19:56:22.460Z,1.15
2023-03-01T19:58:50.540Z,1.30
2023-03-01T20:01:21.622Z,0.93
2023-03-01T20:03:48.448Z,0.82
2023-03-01T20:06:18.734Z,0.55
2023-03-01T20:08:45.342Z,1.00
2023-03-01T20:11:14.022Z,0.90
2023-03-01T20:13:41.111Z,0.90
2023-03-01T20:16:08.874Z,0.90
2023-03-01T20:18:35.653Z,0.90
2023-03-01T20:21:05.471Z,0.95
2023-03-01T20:23:36.119Z,1.10
2023-03-01T20:26:08.961Z,1.17
2023-03-01T20:28:37.219Z,1.00
2023-03-01T20:31:10.978Z,1.02
2023-03-01T20:33:37.727Z,0.70
2023-03-01T20:36:05.691Z,1.10
2023-03-01T20:38:32.768Z,0.80
2023-03-01T20:41:00.542Z,0.80
2023-03-01T20:43:27.853Z,0.82
2023-03-01T20:45:54.695Z,1.00
2023-03-01T20:48:21.283Z,1.00
2023-03-01T20:50:48.209Z,1.00
2023-03-01T20:53:15.092Z,1.00
2023-03-01T20:55:41.860Z,0.63
2023-03-01T20:58:08.475Z,1.15
2023-03-01T21:00:35.623Z,0.90
2023-03-01T21:03:04.036Z,1.02
2023-03-01T21:05:31.746Z,0.95
2023-03-01T21:08:02.808Z,1.02
2023-03-01T21:10:30.797Z,0.98
2023-03-01T21:12:57.388Z,0.80
2023-03-01T21:15:29.501Z,0.90
2023-03-01T21:17:56.414Z,1.10
2023-03-01T21:20:23.049Z,0.90
2023-03-01T21:22:49.642Z,1.17
2023-03-01T21:25:16.385Z,0.95
2023-03-01T21:27:43.057Z,1.10
2023-03-01T21:30:11.281Z,0.90
2023-03-01T21:32:37.931Z,0.93
2023-03-01T21:35:05.023Z,0.77
2023-03-01T21:37:31.649Z,0.80
2023-03-01T21:39:58.226Z,1.10
2023-03-01T21:42:24.807Z,1.00
2023-03-01T21:44:51.456Z,1.05
2023-03-01T21:47:18.047Z,1.10
2023-03-01T21:49:44.717Z,0.90
2023-03-01T21:52:16.752Z,1.00
2023-03-01T21:54:44.141Z,0.90
2023-03-01T21:57:11.573Z,0.95
2023-03-01T21:59:38.783Z,1.30
2023-03-01T22:02:05.434Z,0.90
2023-03-01T22:04:32.081Z,1.10
2023-03-01T22:06:58.700Z,1.13
2023-03-01T22:09:25.628Z,1.20
2023-03-01T22:11:58.593Z,1.10
2023-03-01T22:14:26.471Z,1.30
2023-03-01T22:16:53.470Z,1.13
2023-03-01T22:19:21.894Z,0.90
2023-03-01T22:21:51.049Z,1.10
2023-03-01T22:24:20.464Z,1.10
2023-03-01T22:26:49.446Z,1.10
2023-03-01T22:29:19.886Z,1.20
2023-03-01T22:31:46.875Z,1.20
2023-03-01T22:34:14.955Z,1.00
2023-03-01T22:36:41.654Z,1.00
2023-03-01T22:39:08.169Z,1.60
2023-03-01T22:41:44.952Z,1.23
2023-03-01T22:44:13.452Z,1.70
2023-03-01T22:46:40.787Z,2.00
2023-03-01T22:49:07.463Z,2.13
2023-03-01T22:51:36.790Z,2.38
2023-03-01T22:54:04.191Z,2.17
2023-03-01T22:56:33.698Z,2.42
2023-03-01T22:59:02.670Z,2.40
2023-03-01T23:01:30.522Z,3.30
2023-03-01T23:03:58.056Z,3.03
2023-03-01T23:06:24.718Z,3.08
2023-03-01T23:08:53.517Z,2.80
2023-03-01T23:11:21.752Z,3.30
2023-03-01T23:13:48.478Z,2.90
2023-03-01T23:16:15.904Z,3.42
2023-03-01T23:18:42.601Z,3.40
2023-03-01T23:21:09.956Z,3.30
2023-03-01T23:23:36.524Z,3.15
2023-03-01T23:26:03.174Z,3.42
2023-03-01T23:28:30.604Z,3.13
2023-03-01T23:31:05.615Z,3.60
2023-03-01T23:33:38.508Z,3.55
2023-03-01T23:36:14.649Z,3.30
2023-03-01T23:38:41.909Z,3.33
2023-03-01T23:41:17.277Z,4.20
2023-03-01T23:43:45.757Z,3.75
2023-03-01T23:46:14.437Z,4.07
2023-03-01T23:48:41.941Z,4.03
2023-03-01T23:51:08.656Z,4.30
2023-03-01T23:53:37.938Z,3.92
2023-03-01T23:56:04.858Z,4.03
2023-03-01T23:58:31.693Z,4.50
